sensor_id;sensor_type;location;lat;lon;timestamp;temperature;humidity
16287;DHT22;8251;53.568;10.018;2022-09-09T00:01:46;18.30;92.50
16287;DHT22;8251;53.568;10.018;2022-09-09T00:04:24;18.30;92.50
16287;DHT22;8251;53.568;10.018;2022-09-09T00:07:03;18.30;92.60
16287;DHT22;8251;53.568;10.018;2022-09-09T00:09:34;18.30;92.70
16287;DHT22;8251;53.568;10.018;2022-09-09T00:12:10;18.30;92.70
16287;DHT22;8251;53.568;10.018;2022-09-09T00:14:45;18.30;92.80
16287;DHT22;8251;53.568;10.018;2022-09-09T00:17:26;18.30;92.80
16287;DHT22;8251;53.568;10.018;2022-09-09T00:20:01;18.30;92.90
16287;DHT22;8251;53.568;10.018;2022-09-09T00:22:30;18.30;93.00
16287;DHT22;8251;53.568;10.018;2022-09-09T00:25:03;18.40;93.30
16287;DHT22;8251;53.568;10.018;2022-09-09T00:27:40;18.40;93.00
16287;DHT22;8251;53.568;10.018;2022-09-09T00:30:16;18.40;93.00
16287;DHT22;8251;53.568;10.018;2022-09-09T00:32:46;18.40;93.00
16287;DHT22;8251;53.568;10.018;2022-09-09T00:35:18;18.40;93.20
16287;DHT22;8251;53.568;10.018;2022-09-09T00:37:50;18.40;93.20
16287;DHT22;8251;53.568;10.018;2022-09-09T00:40:23;18.40;93.30
16287;DHT22;8251;53.568;10.018;2022-09-09T00:43:00;18.40;93.30
16287;DHT22;8251;53.568;10.018;2022-09-09T00:48:44;18.50;93.20
16287;DHT22;8251;53.568;10.018;2022-09-09T00:51:22;18.50;93.30
16287;DHT22;8251;53.568;10.018;2022-09-09T00:54:09;18.60;93.30
16287;DHT22;8251;53.568;10.018;2022-09-09T00:56:44;18.60;93.20
16287;DHT22;8251;53.568;10.018;2022-09-09T00:59:24;18.60;93.20
16287;DHT22;8251;53.568;10.018;2022-09-09T01:01:55;18.60;93.20
16287;DHT22;8251;53.568;10.018;2022-09-09T01:04:27;18.60;93.10
16287;DHT22;8251;53.568;10.018;2022-09-09T01:07:01;18.60;93.10
16287;DHT22;8251;53.568;10.018;2022-09-09T01:09:33;18.60;93.10
16287;DHT22;8251;53.568;10.018;2022-09-09T01:12:09;18.60;93.00
16287;DHT22;8251;53.568;10.018;2022-09-09T01:14:43;18.60;93.00
16287;DHT22;8251;53.568;10.018;2022-09-09T01:17:17;18.50;93.10
16287;DHT22;8251;53.568;10.018;2022-09-09T01:20:02;18.60;93.10
16287;DHT22;8251;53.568;10.018;2022-09-09T01:22:34;18.60;93.00
16287;DHT22;8251;53.568;10.018;2022-09-09T01:25:22;18.60;93.00
16287;DHT22;8251;53.568;10.018;2022-09-09T01:27:57;18.70;93.00
16287;DHT22;8251;53.568;10.018;2022-09-09T01:30:26;18.60;92.80
16287;DHT22;8251;53.568;10.018;2022-09-09T01:32:56;18.60;92.90
16287;DHT22;8251;53.568;10.018;2022-09-09T01:35:32;18.60;93.20
16287;DHT22;8251;53.568;10.018;2022-09-09T01:38:02;18.60;92.90
16287;DHT22;8251;53.568;10.018;2022-09-09T01:40:29;18.60;92.90
16287;DHT22;8251;53.568;10.018;2022-09-09T01:42:58;18.70;92.90
16287;DHT22;8251;53.568;10.018;2022-09-09T01:45:25;18.70;92.80
16287;DHT22;8251;53.568;10.018;2022-09-09T01:47:52;18.60;92.70
16287;DHT22;8251;53.568;10.018;2022-09-09T01:50:20;18.60;92.70
16287;DHT22;8251;53.568;10.018;2022-09-09T01:52:50;18.60;92.60
16287;DHT22;8251;53.568;10.018;2022-09-09T01:55:26;18.60;92.60
16287;DHT22;8251;53.568;10.018;2022-09-09T01:58:04;18.60;92.50
16287;DHT22;8251;53.568;10.018;2022-09-09T02:00:41;18.60;92.60
16287;DHT22;8251;53.568;10.018;2022-09-09T02:03:18;18.50;92.50
16287;DHT22;8251;53.568;10.018;2022-09-09T02:05:54;18.50;92.40
16287;DHT22;8251;53.568;10.018;2022-09-09T02:08:25;18.50;92.50
16287;DHT22;8251;53.568;10.018;2022-09-09T02:10:56;18.50;92.60
16287;DHT22;8251;53.568;10.018;2022-09-09T02:13:28;18.40;92.50
16287;DHT22;8251;53.568;10.018;2022-09-09T02:15:58;18.50;92.60
16287;DHT22;8251;53.568;10.018;2022-09-09T02:18:30;18.40;92.50
16287;DHT22;8251;53.568;10.018;2022-09-09T02:20:59;18.40;92.60
16287;DHT22;8251;53.568;10.018;2022-09-09T02:23:28;18.40;92.60
16287;DHT22;8251;53.568;10.018;2022-09-09T02:25:56;18.40;92.60
16287;DHT22;8251;53.568;10.018;2022-09-09T02:28:28;18.40;92.60
16287;DHT22;8251;53.568;10.018;2022-09-09T02:30:56;18.40;92.70
16287;DHT22;8251;53.568;10.018;2022-09-09T02:33:26;18.40;92.60
16287;DHT22;8251;53.568;10.018;2022-09-09T02:35:55;18.40;92.60
16287;DHT22;8251;53.568;10.018;2022-09-09T02:38:29;18.40;92.60
16287;DHT22;8251;53.568;10.018;2022-09-09T02:40:58;18.40;92.60
16287;DHT22;8251;53.568;10.018;2022-09-09T02:43:25;18.40;92.50
16287;DHT22;8251;53.568;10.018;2022-09-09T02:46:02;18.40;92.40
16287;DHT22;8251;53.568;10.018;2022-09-09T02:48:36;18.40;92.40
16287;DHT22;8251;53.568;10.018;2022-09-09T02:51:15;18.30;92.40
16287;DHT22;8251;53.568;10.018;2022-09-09T02:53:49;18.30;92.50
16287;DHT22;8251;53.568;10.018;2022-09-09T02:56:21;18.30;92.40
16287;DHT22;8251;53.568;10.018;2022-09-09T02:58:50;18.30;92.40
16287;DHT22;8251;53.568;10.018;2022-09-09T03:01:18;18.40;92.40
16287;DHT22;8251;53.568;10.018;2022-09-09T03:03:45;18.30;92.40
16287;DHT22;8251;53.568;10.018;2022-09-09T03:06:12;18.30;92.50
16287;DHT22;8251;53.568;10.018;2022-09-09T03:08:39;18.30;92.40
16287;DHT22;8251;53.568;10.018;2022-09-09T03:11:07;18.30;92.40
16287;DHT22;8251;53.568;10.018;2022-09-09T03:13:35;18.30;92.40
16287;DHT22;8251;53.568;10.018;2022-09-09T03:16:03;18.30;92.40
16287;DHT22;8251;53.568;10.018;2022-09-09T03:18:32;18.30;92.40
16287;DHT22;8251;53.568;10.018;2022-09-09T03:20:59;18.30;92.40
16287;DHT22;8251;53.568;10.018;2022-09-09T03:23:26;18.30;92.40
16287;DHT22;8251;53.568;10.018;2022-09-09T03:25:53;18.30;92.40
16287;DHT22;8251;53.568;10.018;2022-09-09T03:28:24;18.30;92.40
16287;DHT22;8251;53.568;10.018;2022-09-09T03:30:58;18.20;92.40
16287;DHT22;8251;53.568;10.018;2022-09-09T03:33:25;18.30;92.30
16287;DHT22;8251;53.568;10.018;2022-09-09T03:35:54;18.30;92.30
16287;DHT22;8251;53.568;10.018;2022-09-09T03:38:22;18.30;92.30
16287;DHT22;8251;53.568;10.018;2022-09-09T03:40:50;18.30;92.20
16287;DHT22;8251;53.568;10.018;2022-09-09T03:43:20;18.20;92.10
16287;DHT22;8251;53.568;10.018;2022-09-09T03:45:48;18.20;92.10
16287;DHT22;8251;53.568;10.018;2022-09-09T03:48:15;18.20;92.10
16287;DHT22;8251;53.568;10.018;2022-09-09T03:50:45;18.20;92.20
16287;DHT22;8251;53.568;10.018;2022-09-09T03:53:14;18.10;92.20
16287;DHT22;8251;53.568;10.018;2022-09-09T03:55:44;18.10;92.20
16287;DHT22;8251;53.568;10.018;2022-09-09T03:58:11;18.10;92.10
16287;DHT22;8251;53.568;10.018;2022-09-09T04:00:39;18.10;92.10
16287;DHT22;8251;53.568;10.018;2022-09-09T04:03:08;18.10;92.10
16287;DHT22;8251;53.568;10.018;2022-09-09T04:05:35;18.10;92.20
16287;DHT22;8251;53.568;10.018;2022-09-09T04:08:05;18.00;92.10
16287;DHT22;8251;53.568;10.018;2022-09-09T04:10:34;18.00;92.10
16287;DHT22;8251;53.568;10.018;2022-09-09T04:13:02;18.00;92.20
16287;DHT22;8251;53.568;10.018;2022-09-09T04:15:29;18.00;92.20
16287;DHT22;8251;53.568;10.018;2022-09-09T04:17:57;18.00;92.20
16287;DHT22;8251;53.568;10.018;2022-09-09T04:20:24;18.00;92.30
16287;DHT22;8251;53.568;10.018;2022-09-09T04:22:51;18.00;92.30
16287;DHT22;8251;53.568;10.018;2022-09-09T04:25:17;18.00;92.20
16287;DHT22;8251;53.568;10.018;2022-09-09T04:27:46;17.90;92.20
16287;DHT22;8251;53.568;10.018;2022-09-09T04:30:13;18.00;92.20
16287;DHT22;8251;53.568;10.018;2022-09-09T04:32:39;17.90;92.50
16287;DHT22;8251;53.568;10.018;2022-09-09T04:35:07;17.90;92.20
16287;DHT22;8251;53.568;10.018;2022-09-09T04:37:34;17.90;92.20
16287;DHT22;8251;53.568;10.018;2022-09-09T04:40:01;17.90;92.20
16287;DHT22;8251;53.568;10.018;2022-09-09T04:42:28;18.00;92.20
16287;DHT22;8251;53.568;10.018;2022-09-09T04:44:56;18.00;92.20
16287;DHT22;8251;53.568;10.018;2022-09-09T04:47:24;18.00;92.20
16287;DHT22;8251;53.568;10.018;2022-09-09T04:49:51;18.00;92.20
16287;DHT22;8251;53.568;10.018;2022-09-09T04:52:20;18.00;92.20
16287;DHT22;8251;53.568;10.018;2022-09-09T04:54:47;18.00;92.20
16287;DHT22;8251;53.568;10.018;2022-09-09T04:57:14;18.00;92.30
16287;DHT22;8251;53.568;10.018;2022-09-09T04:59:41;18.00;92.20
16287;DHT22;8251;53.568;10.018;2022-09-09T05:02:09;18.00;92.20
16287;DHT22;8251;53.568;10.018;2022-09-09T05:04:36;18.00;92.20
16287;DHT22;8251;53.568;10.018;2022-09-09T05:07:03;18.00;92.10
16287;DHT22;8251;53.568;10.018;2022-09-09T05:09:30;18.00;92.10
16287;DHT22;8251;53.568;10.018;2022-09-09T05:11:57;18.00;92.10
16287;DHT22;8251;53.568;10.018;2022-09-09T05:14:24;18.00;92.10
16287;DHT22;8251;53.568;10.018;2022-09-09T05:16:52;18.00;92.10
16287;DHT22;8251;53.568;10.018;2022-09-09T05:19:20;18.00;92.10
16287;DHT22;8251;53.568;10.018;2022-09-09T05:21:47;18.00;92.10
16287;DHT22;8251;53.568;10.018;2022-09-09T05:24:14;18.00;92.10
16287;DHT22;8251;53.568;10.018;2022-09-09T05:26:42;18.00;92.00
16287;DHT22;8251;53.568;10.018;2022-09-09T05:29:12;18.00;91.90
16287;DHT22;8251;53.568;10.018;2022-09-09T05:31:48;18.00;92.30
16287;DHT22;8251;53.568;10.018;2022-09-09T05:34:21;18.00;92.00
16287;DHT22;8251;53.568;10.018;2022-09-09T05:36:48;18.00;92.00
16287;DHT22;8251;53.568;10.018;2022-09-09T05:39:14;18.00;92.00
16287;DHT22;8251;53.568;10.018;2022-09-09T05:41:41;18.00;92.00
16287;DHT22;8251;53.568;10.018;2022-09-09T05:44:08;18.00;92.00
16287;DHT22;8251;53.568;10.018;2022-09-09T05:46:36;18.00;92.00
16287;DHT22;8251;53.568;10.018;2022-09-09T05:49:03;18.10;92.10
16287;DHT22;8251;53.568;10.018;2022-09-09T05:51:33;18.10;92.10
16287;DHT22;8251;53.568;10.018;2022-09-09T05:54:00;18.20;92.10
16287;DHT22;8251;53.568;10.018;2022-09-09T05:56:27;18.20;92.10
16287;DHT22;8251;53.568;10.018;2022-09-09T05:58:56;18.20;92.10
16287;DHT22;8251;53.568;10.018;2022-09-09T06:01:25;18.30;92.20
16287;DHT22;8251;53.568;10.018;2022-09-09T06:03:53;18.30;92.10
16287;DHT22;8251;53.568;10.018;2022-09-09T06:06:21;18.40;92.10
16287;DHT22;8251;53.568;10.018;2022-09-09T06:08:53;18.40;92.00
16287;DHT22;8251;53.568;10.018;2022-09-09T06:11:26;18.40;91.90
16287;DHT22;8251;53.568;10.018;2022-09-09T06:14:03;18.40;91.90
16287;DHT22;8251;53.568;10.018;2022-09-09T06:16:35;18.40;92.00
16287;DHT22;8251;53.568;10.018;2022-09-09T06:19:05;18.50;92.00
16287;DHT22;8251;53.568;10.018;2022-09-09T06:21:38;18.50;92.00
16287;DHT22;8251;53.568;10.018;2022-09-09T06:24:09;18.40;91.40
16287;DHT22;8251;53.568;10.018;2022-09-09T06:26:39;18.40;91.70
16287;DHT22;8251;53.568;10.018;2022-09-09T06:29:07;18.40;91.60
16287;DHT22;8251;53.568;10.018;2022-09-09T06:31:36;18.30;91.70
16287;DHT22;8251;53.568;10.018;2022-09-09T06:34:05;18.40;91.80
16287;DHT22;8251;53.568;10.018;2022-09-09T06:36:34;18.40;91.90
16287;DHT22;8251;53.568;10.018;2022-09-09T06:39:02;18.40;92.00
16287;DHT22;8251;53.568;10.018;2022-09-09T06:41:32;18.50;92.00
16287;DHT22;8251;53.568;10.018;2022-09-09T06:43:59;18.50;92.00
16287;DHT22;8251;53.568;10.018;2022-09-09T06:46:28;18.50;92.00
16287;DHT22;8251;53.568;10.018;2022-09-09T06:48:56;18.50;92.00
16287;DHT22;8251;53.568;10.018;2022-09-09T06:51:28;18.50;92.00
16287;DHT22;8251;53.568;10.018;2022-09-09T06:53:56;18.60;92.00
16287;DHT22;8251;53.568;10.018;2022-09-09T06:56:25;18.60;91.90
16287;DHT22;8251;53.568;10.018;2022-09-09T06:58:56;18.70;91.80
16287;DHT22;8251;53.568;10.018;2022-09-09T07:01:25;18.80;91.80
16287;DHT22;8251;53.568;10.018;2022-09-09T07:03:53;18.80;91.80
16287;DHT22;8251;53.568;10.018;2022-09-09T07:06:22;19.10;91.80
16287;DHT22;8251;53.568;10.018;2022-09-09T07:08:51;19.40;91.60
16287;DHT22;8251;53.568;10.018;2022-09-09T07:11:19;19.60;91.00
16287;DHT22;8251;53.568;10.018;2022-09-09T07:13:47;19.90;90.80
16287;DHT22;8251;53.568;10.018;2022-09-09T07:16:18;20.00;90.20
16287;DHT22;8251;53.568;10.018;2022-09-09T07:18:46;20.00;89.70
16287;DHT22;8251;53.568;10.018;2022-09-09T07:21:14;19.90;89.50
16287;DHT22;8251;53.568;10.018;2022-09-09T07:23:41;19.90;89.10
16287;DHT22;8251;53.568;10.018;2022-09-09T07:26:09;19.80;89.60
16287;DHT22;8251;53.568;10.018;2022-09-09T07:28:37;19.80;90.00
16287;DHT22;8251;53.568;10.018;2022-09-09T07:31:05;19.80;90.00
16287;DHT22;8251;53.568;10.018;2022-09-09T07:33:35;19.80;90.10
16287;DHT22;8251;53.568;10.018;2022-09-09T07:36:04;19.80;90.20
16287;DHT22;8251;53.568;10.018;2022-09-09T07:38:33;20.00;90.40
16287;DHT22;8251;53.568;10.018;2022-09-09T07:41:04;20.40;90.00
16287;DHT22;8251;53.568;10.018;2022-09-09T07:43:31;20.50;87.70
16287;DHT22;8251;53.568;10.018;2022-09-09T07:45:59;20.50;87.50
16287;DHT22;8251;53.568;10.018;2022-09-09T07:48:27;20.60;87.70
16287;DHT22;8251;53.568;10.018;2022-09-09T07:51:08;20.70;87.80
16287;DHT22;8251;53.568;10.018;2022-09-09T07:53:36;20.80;87.90
16287;DHT22;8251;53.568;10.018;2022-09-09T07:56:05;20.80;87.80
16287;DHT22;8251;53.568;10.018;2022-09-09T07:58:32;20.90;87.30
16287;DHT22;8251;53.568;10.018;2022-09-09T08:01:00;20.80;87.30
16287;DHT22;8251;53.568;10.018;2022-09-09T08:03:27;20.80;87.50
16287;DHT22;8251;53.568;10.018;2022-09-09T08:06:00;20.70;87.50
16287;DHT22;8251;53.568;10.018;2022-09-09T08:08:29;20.80;87.70
16287;DHT22;8251;53.568;10.018;2022-09-09T08:11:05;20.80;87.90
16287;DHT22;8251;53.568;10.018;2022-09-09T08:13:36;20.90;88.00
16287;DHT22;8251;53.568;10.018;2022-09-09T08:16:07;21.00;87.40
16287;DHT22;8251;53.568;10.018;2022-09-09T08:18:35;21.30;86.80
16287;DHT22;8251;53.568;10.018;2022-09-09T08:21:11;21.60;85.30
16287;DHT22;8251;53.568;10.018;2022-09-09T08:23:40;21.80;84.20
16287;DHT22;8251;53.568;10.018;2022-09-09T08:26:11;22.00;83.30
16287;DHT22;8251;53.568;10.018;2022-09-09T08:28:39;22.30;82.60
16287;DHT22;8251;53.568;10.018;2022-09-09T08:31:11;22.70;81.70
16287;DHT22;8251;53.568;10.018;2022-09-09T08:33:42;23.00;80.70
16287;DHT22;8251;53.568;10.018;2022-09-09T08:36:16;22.90;76.60
16287;DHT22;8251;53.568;10.018;2022-09-09T08:38:50;22.90;77.70
16287;DHT22;8251;53.568;10.018;2022-09-09T08:41:37;22.80;79.30
16287;DHT22;8251;53.568;10.018;2022-09-09T08:44:08;22.90;79.70
16287;DHT22;8251;53.568;10.018;2022-09-09T08:46:45;23.00;79.10
16287;DHT22;8251;53.568;10.018;2022-09-09T08:49:24;23.00;78.50
16287;DHT22;8251;53.568;10.018;2022-09-09T08:51:58;23.00;78.10
16287;DHT22;8251;53.568;10.018;2022-09-09T08:54:33;22.80;77.90
16287;DHT22;8251;53.568;10.018;2022-09-09T08:57:01;22.70;78.80
16287;DHT22;8251;53.568;10.018;2022-09-09T08:59:29;22.60;79.80
16287;DHT22;8251;53.568;10.018;2022-09-09T09:02:02;22.60;80.40
16287;DHT22;8251;53.568;10.018;2022-09-09T09:04:53;22.70;77.80
16287;DHT22;8251;53.568;10.018;2022-09-09T09:07:33;22.80;78.60
16287;DHT22;8251;53.568;10.018;2022-09-09T09:10:07;22.90;79.70
16287;DHT22;8251;53.568;10.018;2022-09-09T09:12:40;22.90;78.90
16287;DHT22;8251;53.568;10.018;2022-09-09T09:15:14;23.00;78.20
16287;DHT22;8251;53.568;10.018;2022-09-09T09:17:43;23.10;78.50
16287;DHT22;8251;53.568;10.018;2022-09-09T09:20:14;23.10;78.90
16287;DHT22;8251;53.568;10.018;2022-09-09T09:22:47;23.10;77.00
16287;DHT22;8251;53.568;10.018;2022-09-09T09:25:19;23.10;78.10
16287;DHT22;8251;53.568;10.018;2022-09-09T09:27:52;23.10;77.30
16287;DHT22;8251;53.568;10.018;2022-09-09T09:30:28;23.20;78.10
16287;DHT22;8251;53.568;10.018;2022-09-09T09:32:59;23.20;77.20
16287;DHT22;8251;53.568;10.018;2022-09-09T09:35:27;23.10;77.30
16287;DHT22;8251;53.568;10.018;2022-09-09T09:37:55;23.10;75.60
16287;DHT22;8251;53.568;10.018;2022-09-09T09:40:23;23.10;76.00
16287;DHT22;8251;53.568;10.018;2022-09-09T09:42:52;23.00;75.40
16287;DHT22;8251;53.568;10.018;2022-09-09T09:45:29;23.00;75.70
16287;DHT22;8251;53.568;10.018;2022-09-09T09:47:59;23.00;75.80
16287;DHT22;8251;53.568;10.018;2022-09-09T09:50:28;23.00;75.20
16287;DHT22;8251;53.568;10.018;2022-09-09T09:52:56;22.90;74.90
16287;DHT22;8251;53.568;10.018;2022-09-09T09:55:25;22.90;76.30
16287;DHT22;8251;53.568;10.018;2022-09-09T09:57:53;22.90;77.10
16287;DHT22;8251;53.568;10.018;2022-09-09T10:00:22;23.00;76.90
16287;DHT22;8251;53.568;10.018;2022-09-09T10:02:50;23.20;76.60
16287;DHT22;8251;53.568;10.018;2022-09-09T10:05:20;23.50;75.10
16287;DHT22;8251;53.568;10.018;2022-09-09T10:07:57;23.90;74.50
16287;DHT22;8251;53.568;10.018;2022-09-09T10:10:37;24.40;72.50
16287;DHT22;8251;53.568;10.018;2022-09-09T10:13:13;24.70;71.20
16287;DHT22;8251;53.568;10.018;2022-09-09T10:15:50;25.10;69.90
16287;DHT22;8251;53.568;10.018;2022-09-09T10:18:34;25.40;67.30
16287;DHT22;8251;53.568;10.018;2022-09-09T10:21:09;25.80;65.90
16287;DHT22;8251;53.568;10.018;2022-09-09T10:23:56;26.00;67.10
16287;DHT22;8251;53.568;10.018;2022-09-09T10:26:38;26.20;65.50
16287;DHT22;8251;53.568;10.018;2022-09-09T10:29:26;26.10;64.40
16287;DHT22;8251;53.568;10.018;2022-09-09T10:32:23;26.20;65.30
16287;DHT22;8251;53.568;10.018;2022-09-09T10:34:56;26.10;62.70
16287;DHT22;8251;53.568;10.018;2022-09-09T10:37:48;26.00;62.70
16287;DHT22;8251;53.568;10.018;2022-09-09T10:40:28;26.00;64.70
16287;DHT22;8251;53.568;10.018;2022-09-09T10:43:08;26.10;64.20
16287;DHT22;8251;53.568;10.018;2022-09-09T10:45:45;26.40;63.10
16287;DHT22;8251;53.568;10.018;2022-09-09T10:48:26;26.60;63.70
16287;DHT22;8251;53.568;10.018;2022-09-09T10:51:05;26.80;62.00
16287;DHT22;8251;53.568;10.018;2022-09-09T10:53:46;26.80;60.60
16287;DHT22;8251;53.568;10.018;2022-09-09T10:56:19;26.70;60.80
16287;DHT22;8251;53.568;10.018;2022-09-09T10:58:53;26.40;60.50
16287;DHT22;8251;53.568;10.018;2022-09-09T11:01:24;26.30;61.00
16287;DHT22;8251;53.568;10.018;2022-09-09T11:03:56;26.20;61.20
16287;DHT22;8251;53.568;10.018;2022-09-09T11:06:32;26.10;60.50
16287;DHT22;8251;53.568;10.018;2022-09-09T11:09:08;25.90;61.40
16287;DHT22;8251;53.568;10.018;2022-09-09T11:11:43;25.80;62.10
16287;DHT22;8251;53.568;10.018;2022-09-09T11:14:19;25.70;61.80
16287;DHT22;8251;53.568;10.018;2022-09-09T11:16:50;25.80;62.70
16287;DHT22;8251;53.568;10.018;2022-09-09T11:19:24;25.70;63.00
16287;DHT22;8251;53.568;10.018;2022-09-09T11:21:53;25.80;62.80
16287;DHT22;8251;53.568;10.018;2022-09-09T11:24:26;25.90;62.20
16287;DHT22;8251;53.568;10.018;2022-09-09T11:26:58;25.90;62.30
16287;DHT22;8251;53.568;10.018;2022-09-09T11:29:45;26.00;61.30
16287;DHT22;8251;53.568;10.018;2022-09-09T11:32:33;25.80;61.40
16287;DHT22;8251;53.568;10.018;2022-09-09T11:35:18;25.70;62.70
16287;DHT22;8251;53.568;10.018;2022-09-09T11:38:21;25.60;63.10
16287;DHT22;8251;53.568;10.018;2022-09-09T11:40:56;25.50;64.30
16287;DHT22;8251;53.568;10.018;2022-09-09T11:43:28;25.40;65.30
16287;DHT22;8251;53.568;10.018;2022-09-09T11:45:59;25.30;64.90
16287;DHT22;8251;53.568;10.018;2022-09-09T11:48:32;25.10;65.10
16287;DHT22;8251;53.568;10.018;2022-09-09T11:51:05;25.00;65.90
16287;DHT22;8251;53.568;10.018;2022-09-09T11:53:33;25.00;66.10
16287;DHT22;8251;53.568;10.018;2022-09-09T11:56:07;25.00;66.00
16287;DHT22;8251;53.568;10.018;2022-09-09T11:58:41;25.00;65.80
16287;DHT22;8251;53.568;10.018;2022-09-09T12:01:35;24.90;66.10
16287;DHT22;8251;53.568;10.018;2022-09-09T12:04:21;24.90;66.50
16287;DHT22;8251;53.568;10.018;2022-09-09T12:06:56;25.10;66.60
16287;DHT22;8251;53.568;10.018;2022-09-09T12:09:28;25.20;66.10
16287;DHT22;8251;53.568;10.018;2022-09-09T12:12:07;25.20;65.60
16287;DHT22;8251;53.568;10.018;2022-09-09T12:14:59;25.10;65.60
16287;DHT22;8251;53.568;10.018;2022-09-09T12:17:30;25.00;65.70
16287;DHT22;8251;53.568;10.018;2022-09-09T12:20:08;24.90;65.90
16287;DHT22;8251;53.568;10.018;2022-09-09T12:22:47;24.80;65.90
16287;DHT22;8251;53.568;10.018;2022-09-09T12:25:23;24.70;66.10
16287;DHT22;8251;53.568;10.018;2022-09-09T12:28:04;24.60;67.10
16287;DHT22;8251;53.568;10.018;2022-09-09T12:30:37;24.50;69.90
16287;DHT22;8251;53.568;10.018;2022-09-09T12:33:11;24.50;71.90
16287;DHT22;8251;53.568;10.018;2022-09-09T12:35:42;24.40;73.30
16287;DHT22;8251;53.568;10.018;2022-09-09T12:38:13;24.40;75.10
16287;DHT22;8251;53.568;10.018;2022-09-09T12:40:42;24.30;76.60
16287;DHT22;8251;53.568;10.018;2022-09-09T12:43:21;24.30;77.70
16287;DHT22;8251;53.568;10.018;2022-09-09T12:45:49;24.20;77.30
16287;DHT22;8251;53.568;10.018;2022-09-09T12:48:27;24.40;77.90
16287;DHT22;8251;53.568;10.018;2022-09-09T12:50:57;24.40;79.20
16287;DHT22;8251;53.568;10.018;2022-09-09T12:53:27;24.40;76.70
16287;DHT22;8251;53.568;10.018;2022-09-09T12:55:57;24.40;75.40
16287;DHT22;8251;53.568;10.018;2022-09-09T12:58:26;24.30;74.10
16287;DHT22;8251;53.568;10.018;2022-09-09T13:00:59;24.10;74.50
16287;DHT22;8251;53.568;10.018;2022-09-09T13:03:27;23.90;76.20
16287;DHT22;8251;53.568;10.018;2022-09-09T13:06:09;23.80;75.50
16287;DHT22;8251;53.568;10.018;2022-09-09T13:08:37;23.70;76.10
16287;DHT22;8251;53.568;10.018;2022-09-09T13:11:08;23.60;76.00
16287;DHT22;8251;53.568;10.018;2022-09-09T13:13:41;23.50;77.00
16287;DHT22;8251;53.568;10.018;2022-09-09T13:16:20;23.40;77.80
16287;DHT22;8251;53.568;10.018;2022-09-09T13:18:48;23.30;77.80
16287;DHT22;8251;53.568;10.018;2022-09-09T13:21:16;23.20;78.60
16287;DHT22;8251;53.568;10.018;2022-09-09T13:23:49;23.10;79.10
16287;DHT22;8251;53.568;10.018;2022-09-09T13:26:24;23.00;78.70
16287;DHT22;8251;53.568;10.018;2022-09-09T13:28:52;22.90;79.20
16287;DHT22;8251;53.568;10.018;2022-09-09T13:31:22;22.80;78.90
16287;DHT22;8251;53.568;10.018;2022-09-09T13:33:51;22.70;80.00
16287;DHT22;8251;53.568;10.018;2022-09-09T13:36:28;22.50;80.70
16287;DHT22;8251;53.568;10.018;2022-09-09T13:38:57;22.40;81.90
16287;DHT22;8251;53.568;10.018;2022-09-09T13:41:28;22.30;83.30
16287;DHT22;8251;53.568;10.018;2022-09-09T13:43:57;22.20;84.30
16287;DHT22;8251;53.568;10.018;2022-09-09T13:46:31;22.10;85.20
16287;DHT22;8251;53.568;10.018;2022-09-09T13:49:02;22.00;85.40
16287;DHT22;8251;53.568;10.018;2022-09-09T13:51:35;21.80;85.00
16287;DHT22;8251;53.568;10.018;2022-09-09T13:54:03;21.70;85.80
16287;DHT22;8251;53.568;10.018;2022-09-09T13:56:31;21.70;86.20
16287;DHT22;8251;53.568;10.018;2022-09-09T13:58:58;21.60;86.30
16287;DHT22;8251;53.568;10.018;2022-09-09T14:01:26;21.60;87.00
16287;DHT22;8251;53.568;10.018;2022-09-09T14:03:53;21.50;87.40
16287;DHT22;8251;53.568;10.018;2022-09-09T14:06:22;21.50;87.80
16287;DHT22;8251;53.568;10.018;2022-09-09T14:08:50;21.50;88.20
16287;DHT22;8251;53.568;10.018;2022-09-09T14:11:17;21.40;88.40
16287;DHT22;8251;53.568;10.018;2022-09-09T14:13:45;21.40;88.70
16287;DHT22;8251;53.568;10.018;2022-09-09T14:16:12;21.40;89.00
16287;DHT22;8251;53.568;10.018;2022-09-09T14:18:39;21.30;89.20
16287;DHT22;8251;53.568;10.018;2022-09-09T14:21:06;21.30;89.50
16287;DHT22;8251;53.568;10.018;2022-09-09T14:23:35;21.30;89.60
16287;DHT22;8251;53.568;10.018;2022-09-09T14:26:03;21.30;89.80
16287;DHT22;8251;53.568;10.018;2022-09-09T14:28:30;21.20;89.60
16287;DHT22;8251;53.568;10.018;2022-09-09T14:30:59;21.10;88.70
16287;DHT22;8251;53.568;10.018;2022-09-09T14:33:27;21.10;88.40
16287;DHT22;8251;53.568;10.018;2022-09-09T14:35:56;21.00;88.70
16287;DHT22;8251;53.568;10.018;2022-09-09T14:38:23;21.00;89.40
16287;DHT22;8251;53.568;10.018;2022-09-09T14:40:52;21.00;89.70
16287;DHT22;8251;53.568;10.018;2022-09-09T14:43:19;20.90;89.20
16287;DHT22;8251;53.568;10.018;2022-09-09T14:45:46;20.90;88.70
16287;DHT22;8251;53.568;10.018;2022-09-09T14:48:16;20.90;88.30
16287;DHT22;8251;53.568;10.018;2022-09-09T14:50:47;20.80;88.60
16287;DHT22;8251;53.568;10.018;2022-09-09T14:53:16;20.80;88.60
16287;DHT22;8251;53.568;10.018;2022-09-09T14:55:43;20.80;88.70
16287;DHT22;8251;53.568;10.018;2022-09-09T14:58:13;20.80;88.80
16287;DHT22;8251;53.568;10.018;2022-09-09T15:00:40;20.80;88.90
16287;DHT22;8251;53.568;10.018;2022-09-09T15:03:09;20.70;88.90
16287;DHT22;8251;53.568;10.018;2022-09-09T15:05:36;20.70;89.20
16287;DHT22;8251;53.568;10.018;2022-09-09T15:08:03;20.70;89.50
16287;DHT22;8251;53.568;10.018;2022-09-09T15:10:30;20.60;89.90
16287;DHT22;8251;53.568;10.018;2022-09-09T15:12:58;20.60;89.90
16287;DHT22;8251;53.568;10.018;2022-09-09T15:15:26;20.60;90.10
16287;DHT22;8251;53.568;10.018;2022-09-09T15:17:53;20.60;90.20
16287;DHT22;8251;53.568;10.018;2022-09-09T15:20:20;20.60;90.20
16287;DHT22;8251;53.568;10.018;2022-09-09T15:22:47;20.60;90.40
16287;DHT22;8251;53.568;10.018;2022-09-09T15:25:16;20.60;90.50
16287;DHT22;8251;53.568;10.018;2022-09-09T15:27:43;20.60;90.50
16287;DHT22;8251;53.568;10.018;2022-09-09T15:30:11;20.60;90.60
16287;DHT22;8251;53.568;10.018;2022-09-09T15:32:40;20.60;90.40
16287;DHT22;8251;53.568;10.018;2022-09-09T15:35:07;20.60;90.20
16287;DHT22;8251;53.568;10.018;2022-09-09T15:37:34;20.60;90.20
16287;DHT22;8251;53.568;10.018;2022-09-09T15:40:01;20.60;90.20
16287;DHT22;8251;53.568;10.018;2022-09-09T15:42:28;20.60;90.00
16287;DHT22;8251;53.568;10.018;2022-09-09T15:44:56;20.60;90.00
16287;DHT22;8251;53.568;10.018;2022-09-09T15:47:23;20.60;90.40
16287;DHT22;8251;53.568;10.018;2022-09-09T15:49:51;20.60;90.60
16287;DHT22;8251;53.568;10.018;2022-09-09T15:52:18;20.60;90.70
16287;DHT22;8251;53.568;10.018;2022-09-09T15:54:45;20.60;90.60
16287;DHT22;8251;53.568;10.018;2022-09-09T15:57:13;20.60;90.40
16287;DHT22;8251;53.568;10.018;2022-09-09T15:59:40;20.60;90.20